createdAt,value
2018-09-09T00:01:34.195Z,85.20
2018-09-09T00:04:02.667Z,85.40
2018-09-09T00:06:31.115Z,85.40
2018-09-09T00:08:59.516Z,85.70
2018-09-09T00:11:28.674Z,86.80
2018-09-09T00:13:57.099Z,86.90
2018-09-09T00:16:25.596Z,87.60
2018-09-09T00:18:54.077Z,87.70
2018-09-09T00:21:22.521Z,87.80
2018-09-09T00:23:51.001Z,87.80
2018-09-09T00:26:19.448Z,88.10
2018-09-09T00:28:48.021Z,88.50
2018-09-09T00:31:16.451Z,88.70
2018-09-09T00:33:44.852Z,89.20
2018-09-09T00:36:13.411Z,88.90
2018-09-09T00:38:41.867Z,88.50
2018-09-09T00:41:10.379Z,87.70
2018-09-09T00:43:38.853Z,86.80
2018-09-09T00:46:07.338Z,85.80
2018-09-09T00:48:35.820Z,85.30
2018-09-09T00:51:09.755Z,85.50
2018-09-09T00:53:42.555Z,86.20
2018-09-09T00:56:11.016Z,86.30
2018-09-09T00:58:39.477Z,86.50
2018-09-09T01:01:16.933Z,86.80
2018-09-09T01:03:46.688Z,86.90
2018-09-09T01:06:15.271Z,88.10
2018-09-09T01:08:43.805Z,88.50
2018-09-09T01:11:12.253Z,89.10
2018-09-09T01:13:40.750Z,89.20
2018-09-09T01:16:09.499Z,89.50
2018-09-09T01:18:38.082Z,89.70
2018-09-09T01:21:06.560Z,89.50
2018-09-09T01:23:35.088Z,89.60
2018-09-09T01:26:03.552Z,89.70
2018-09-09T01:28:32.024Z,89.20
2018-09-09T01:31:00.514Z,89.10
2018-09-09T01:33:28.998Z,88.80
2018-09-09T01:35:57.494Z,88.70
2018-09-09T01:38:25.931Z,88.70
2018-09-09T01:40:54.355Z,88.80
2018-09-09T01:43:22.856Z,88.80
2018-09-09T01:45:51.271Z,89.10
2018-09-09T01:48:19.724Z,88.70
2018-09-09T01:50:48.136Z,88.80
2018-09-09T01:53:16.567Z,89.50
2018-09-09T01:55:45.097Z,89.40
2018-09-09T01:58:13.539Z,89.70
2018-09-09T02:00:42.029Z,90.00
2018-09-09T02:03:10.463Z,90.20
2018-09-09T02:05:38.905Z,90.20
2018-09-09T02:08:07.324Z,90.50
2018-09-09T02:10:35.746Z,91.10
2018-09-09T02:13:04.294Z,91.20
2018-09-09T02:15:32.699Z,91.20
2018-09-09T02:18:01.201Z,91.30
2018-09-09T02:20:30.023Z,91.80
2018-09-09T02:22:58.449Z,92.00
2018-09-09T02:25:26.904Z,92.30
2018-09-09T02:27:55.346Z,92.30
2018-09-09T02:30:23.807Z,92.40
2018-09-09T02:32:52.240Z,92.20
2018-09-09T02:35:20.660Z,91.90
2018-09-09T02:37:49.080Z,92.10
2018-09-09T02:40:17.512Z,92.50
2018-09-09T02:42:45.939Z,92.80
2018-09-09T02:45:14.374Z,92.80
2018-09-09T02:47:42.783Z,92.80
2018-09-09T02:50:11.217Z,92.80
2018-09-09T02:52:40.464Z,92.90
2018-09-09T02:55:08.901Z,93.10
2018-09-09T02:57:37.340Z,93.10
2018-09-09T03:00:06.080Z,93.60
2018-09-09T03:02:34.486Z,94.00
2018-09-09T03:05:02.918Z,93.90
2018-09-09T03:07:31.336Z,94.10
2018-09-09T03:09:59.797Z,94.40
2018-09-09T03:12:28.208Z,94.50
2018-09-09T03:14:56.695Z,94.70
2018-09-09T03:17:25.162Z,94.70
2018-09-09T03:19:53.683Z,94.60
2018-09-09T03:22:22.140Z,94.80
2018-09-09T03:24:50.619Z,95.00
2018-09-09T03:27:19.103Z,95.10
2018-09-09T03:29:47.627Z,95.50
2018-09-09T03:32:16.139Z,95.60
2018-09-09T03:34:44.642Z,95.70
2018-09-09T03:37:13.059Z,95.80
2018-09-09T03:39:41.500Z,95.90
2018-09-09T03:42:09.921Z,95.80
2018-09-09T03:44:38.364Z,95.70
2018-09-09T03:47:06.775Z,95.80
2018-09-09T03:49:35.259Z,96.20
2018-09-09T03:52:03.654Z,95.80
2018-09-09T03:54:32.087Z,95.50
2018-09-09T03:57:00.553Z,95.60
2018-09-09T03:59:29.004Z,95.80
2018-09-09T04:01:57.460Z,95.70
2018-09-09T04:04:25.864Z,96.00
2018-09-09T04:06:54.315Z,95.90
2018-09-09T04:09:22.705Z,96.00
2018-09-09T04:11:51.156Z,96.00
2018-09-09T04:14:19.598Z,96.20
2018-09-09T04:16:48.046Z,96.30
2018-09-09T04:19:16.451Z,96.10
2018-09-09T04:21:49.946Z,96.00
2018-09-09T04:24:18.682Z,96.00
2018-09-09T04:26:47.390Z,95.70
2018-09-09T04:29:16.030Z,95.70
2018-09-09T04:31:44.504Z,95.80
2018-09-09T04:34:13.226Z,95.90
2018-09-09T04:36:42.244Z,96.20
2018-09-09T04:39:12.811Z,96.60
2018-09-09T04:41:41.563Z,96.70
2018-09-09T04:44:11.247Z,96.50
2018-09-09T04:46:39.751Z,96.70
2018-09-09T04:49:09.131Z,96.90
2018-09-09T04:51:37.739Z,96.90
2018-09-09T04:54:06.399Z,97.20
2018-09-09T04:56:34.906Z,97.00
2018-09-09T04:59:03.412Z,96.90
2018-09-09T05:01:31.949Z,96.70
2018-09-09T05:04:00.450Z,96.70
2018-09-09T05:06:28.915Z,96.70
2018-09-09T05:08:57.387Z,96.50
2018-09-09T05:11:25.838Z,96.50
2018-09-09T05:13:54.453Z,96.40
2018-09-09T05:16:22.930Z,96.10
2018-09-09T05:18:51.407Z,95.60
2018-09-09T05:21:19.858Z,95.30
2018-09-09T05:23:48.320Z,94.70
2018-09-09T05:26:16.786Z,94.70
2018-09-09T05:28:45.247Z,94.90
2018-09-09T05:31:13.705Z,94.80
2018-09-09T05:33:42.239Z,94.80
2018-09-09T05:36:10.712Z,94.90
2018-09-09T05:38:39.191Z,95.00
2018-09-09T05:41:07.647Z,95.10
2018-09-09T05:43:36.131Z,94.90
2018-09-09T05:46:04.635Z,95.00
2018-09-09T05:48:33.119Z,94.90
2018-09-09T05:51:01.578Z,94.60
2018-09-09T05:53:30.127Z,94.30
2018-09-09T05:55:58.675Z,94.30
2018-09-09T05:58:27.151Z,94.30
2018-09-09T06:00:55.630Z,94.30
2018-09-09T06:03:24.119Z,94.10
2018-09-09T06:05:52.593Z,93.60
2018-09-09T06:08:21.098Z,93.80
2018-09-09T06:10:53.835Z,93.40
2018-09-09T06:13:23.991Z,93.40
2018-09-09T06:15:52.507Z,93.10
2018-09-09T06:18:20.980Z,92.30
2018-09-09T06:20:49.443Z,92.00
2018-09-09T06:23:17.951Z,91.40
2018-09-09T06:25:46.786Z,91.30
2018-09-09T06:28:15.382Z,90.70
2018-09-09T06:30:43.990Z,90.50
2018-09-09T06:33:12.499Z,90.40
2018-09-09T06:35:41.058Z,90.10
2018-09-09T06:38:09.480Z,90.00
2018-09-09T06:40:37.907Z,88.90
2018-09-09T06:43:06.375Z,88.10
2018-09-09T06:45:34.796Z,87.40
2018-09-09T06:48:03.253Z,87.70
2018-09-09T06:50:31.686Z,87.30
2018-09-09T06:53:00.114Z,87.00
2018-09-09T06:55:28.688Z,88.00
2018-09-09T06:57:57.063Z,87.60
2018-09-09T07:00:25.503Z,87.50
2018-09-09T07:02:53.906Z,87.80
2018-09-09T07:05:22.334Z,87.60
2018-09-09T07:07:50.755Z,88.10
2018-09-09T07:10:19.259Z,88.20
2018-09-09T07:12:47.647Z,88.60
2018-09-09T07:15:16.114Z,88.40
2018-09-09T07:17:44.523Z,88.40
2018-09-09T07:20:12.947Z,88.80
2018-09-09T07:22:41.485Z,88.90
2018-09-09T07:25:09.835Z,87.70
2018-09-09T07:27:38.300Z,87.80
2018-09-09T07:30:06.779Z,86.60
2018-09-09T07:32:35.225Z,86.80
2018-09-09T07:35:03.789Z,86.30
2018-09-09T07:37:32.365Z,84.50
2018-09-09T07:40:00.855Z,83.70
2018-09-09T07:42:29.411Z,83.30
2018-09-09T07:44:57.939Z,81.90
2018-09-09T07:47:26.451Z,81.00
2018-09-09T07:49:54.943Z,80.00
2018-09-09T07:52:23.435Z,79.80
2018-09-09T07:54:51.909Z,78.50
2018-09-09T07:57:20.397Z,77.20
2018-09-09T07:59:49.484Z,76.80
2018-09-09T08:02:17.958Z,76.60
2018-09-09T08:04:46.431Z,76.30
2018-09-09T08:07:14.975Z,75.10
2018-09-09T08:12:26.143Z,74.50
2018-09-09T08:14:54.620Z,74.10
2018-09-09T08:17:23.100Z,73.50
2018-09-09T08:19:51.582Z,73.50
2018-09-09T08:22:20.080Z,73.70
2018-09-09T08:24:48.583Z,72.90
2018-09-09T08:27:17.088Z,72.40
2018-09-09T08:29:45.549Z,71.90
2018-09-09T08:32:14.069Z,71.00
2018-09-09T08:34:42.543Z,71.20
2018-09-09T08:37:11.085Z,72.00
2018-09-09T08:39:39.578Z,69.40
2018-09-09T08:42:08.056Z,69.10
2018-09-09T08:44:36.538Z,69.00
2018-09-09T08:47:05.178Z,68.70
2018-09-09T08:49:33.651Z,67.40
2018-09-09T08:52:02.302Z,66.80
2018-09-09T08:54:30.705Z,67.10
2018-09-09T08:56:59.193Z,66.20
2018-09-09T08:59:27.691Z,66.40
2018-09-09T09:01:56.173Z,66.20
2018-09-09T09:04:24.639Z,65.90
2018-09-09T09:06:53.134Z,65.60
2018-09-09T09:09:21.631Z,64.10
2018-09-09T09:11:50.188Z,64.60
2018-09-09T09:14:18.683Z,63.60
2018-09-09T09:16:47.184Z,63.30
2018-09-09T09:19:15.661Z,63.30
2018-09-09T09:21:44.171Z,63.50
2018-09-09T09:24:12.723Z,62.40
2018-09-09T09:26:41.180Z,61.10
2018-09-09T09:29:09.688Z,61.80
2018-09-09T09:31:38.160Z,61.60
2018-09-09T09:34:06.654Z,60.00
2018-09-09T09:36:35.143Z,60.10
2018-09-09T09:39:04.767Z,59.90
2018-09-09T09:41:33.250Z,60.10
2018-09-09T09:44:01.787Z,59.70
2018-09-09T09:46:30.247Z,58.70
2018-09-09T09:48:58.755Z,59.00
2018-09-09T09:51:27.227Z,59.50
2018-09-09T09:53:55.741Z,59.00
2018-09-09T09:56:24.255Z,58.30
2018-09-09T09:58:52.763Z,57.80
2018-09-09T10:01:21.342Z,58.20
2018-09-09T10:03:49.827Z,58.30
2018-09-09T10:06:18.330Z,58.90
2018-09-09T10:08:46.859Z,57.90
2018-09-09T10:11:15.403Z,57.50
2018-09-09T10:13:43.894Z,56.70
2018-09-09T10:16:12.665Z,57.10
2018-09-09T10:18:41.279Z,57.30
2018-09-09T10:21:09.775Z,57.80
2018-09-09T10:23:38.313Z,57.50
2018-09-09T10:26:06.837Z,57.50
2018-09-09T10:28:35.348Z,57.00
2018-09-09T10:31:03.831Z,57.20
2018-09-09T10:33:32.331Z,57.60
2018-09-09T10:36:00.831Z,57.30
2018-09-09T10:38:29.311Z,57.00
2018-09-09T10:40:57.833Z,56.80
2018-09-09T10:43:26.216Z,56.60
2018-09-09T10:45:54.680Z,56.40
2018-09-09T10:48:23.140Z,56.00
2018-09-09T10:50:51.654Z,55.60
2018-09-09T10:53:20.107Z,55.10
2018-09-09T10:55:48.542Z,54.90
2018-09-09T10:58:16.983Z,55.00
2018-09-09T11:00:45.434Z,55.20
2018-09-09T11:03:13.911Z,55.60
2018-09-09T11:05:42.618Z,56.30
2018-09-09T11:08:15.078Z,55.80
2018-09-09T11:10:43.682Z,56.30
2018-09-09T11:13:12.095Z,56.30
2018-09-09T11:15:40.625Z,55.50
2018-09-09T11:18:09.365Z,55.30
2018-09-09T11:20:37.820Z,55.10
2018-09-09T11:23:06.279Z,53.90
2018-09-09T11:25:34.714Z,54.10
2018-09-09T11:28:03.161Z,53.70
2018-09-09T11:30:31.606Z,53.20
2018-09-09T11:33:00.177Z,53.30
2018-09-09T11:35:28.826Z,53.30
2018-09-09T11:37:57.474Z,53.20
2018-09-09T11:40:26.466Z,53.20
2018-09-09T11:42:54.947Z,52.50
2018-09-09T11:45:23.416Z,52.70
2018-09-09T11:47:51.917Z,52.60
2018-09-09T11:50:20.441Z,50.60
2018-09-09T11:52:49.849Z,51.00
2018-09-09T11:55:18.367Z,51.20
2018-09-09T11:57:46.843Z,51.50
2018-09-09T12:00:15.256Z,50.10
2018-09-09T12:02:43.723Z,49.90
2018-09-09T12:05:12.173Z,49.30
2018-09-09T12:07:40.602Z,49.80
2018-09-09T12:10:09.035Z,49.10
2018-09-09T12:12:37.522Z,48.50
2018-09-09T12:15:05.968Z,47.60
2018-09-09T12:17:34.499Z,48.10
2018-09-09T12:20:02.911Z,48.80
2018-09-09T12:22:31.336Z,48.70
2018-09-09T12:24:59.752Z,48.50
2018-09-09T12:27:28.171Z,47.50
2018-09-09T12:29:56.583Z,48.40
2018-09-09T12:32:25.333Z,48.80
2018-09-09T12:34:53.632Z,47.90
2018-09-09T12:37:22.111Z,47.60
2018-09-09T12:39:50.575Z,48.10
2018-09-09T12:42:19.009Z,47.60
2018-09-09T12:44:52.754Z,47.90
2018-09-09T12:47:26.970Z,47.30
2018-09-09T12:49:55.404Z,48.10
2018-09-09T12:52:23.853Z,47.10
2018-09-09T12:54:52.265Z,46.10
2018-09-09T12:57:20.703Z,46.70
2018-09-09T12:59:49.160Z,46.20
2018-09-09T13:02:17.587Z,46.10
2018-09-09T13:04:46.043Z,46.30
2018-09-09T13:07:14.497Z,46.30
2018-09-09T13:09:42.931Z,45.80
2018-09-09T13:12:11.355Z,46.10
2018-09-09T13:14:39.783Z,46.40
2018-09-09T13:17:08.227Z,46.20
2018-09-09T13:19:36.639Z,46.10
2018-09-09T13:22:05.055Z,46.20
2018-09-09T13:24:33.475Z,46.30
2018-09-09T13:27:01.967Z,44.10
2018-09-09T13:29:30.373Z,44.70
2018-09-09T13:31:58.802Z,44.10
2018-09-09T13:34:27.247Z,45.30
2018-09-09T13:36:55.755Z,44.10
2018-09-09T13:39:24.251Z,44.20
2018-09-09T13:41:52.992Z,44.10
2018-09-09T13:44:21.472Z,45.10
2018-09-09T13:46:50.063Z,44.30
2018-09-09T13:49:18.772Z,44.30
2018-09-09T13:51:47.312Z,45.20
2018-09-09T13:54:15.995Z,45.70
2018-09-09T13:56:44.513Z,45.00
2018-09-09T13:59:12.997Z,44.30
2018-09-09T14:01:41.476Z,44.40
2018-09-09T14:04:09.976Z,44.10
2018-09-09T14:06:38.437Z,44.80
2018-09-09T14:09:08.527Z,44.00
2018-09-09T14:11:37.115Z,44.00
2018-09-09T14:14:05.724Z,44.80
2018-09-09T14:16:34.278Z,44.60
2018-09-09T14:19:02.752Z,43.80
2018-09-09T14:21:31.305Z,43.60
2018-09-09T14:23:59.788Z,41.30
2018-09-09T14:26:28.255Z,41.40
2018-09-09T14:28:56.824Z,41.70
2018-09-09T14:31:25.335Z,41.10
2018-09-09T14:33:53.838Z,41.90
2018-09-09T14:36:22.397Z,42.00
2018-09-09T14:38:50.901Z,42.30
2018-09-09T14:41:19.335Z,41.40
2018-09-09T14:43:47.867Z,41.70
2018-09-09T14:46:16.276Z,44.00
2018-09-09T14:48:44.694Z,41.70
2018-09-09T14:51:13.120Z,41.80
2018-09-09T14:53:41.539Z,43.00
2018-09-09T14:56:09.998Z,43.40
2018-09-09T14:58:38.469Z,43.70
2018-09-09T15:01:06.924Z,43.50
2018-09-09T15:03:35.393Z,43.30
2018-09-09T15:06:03.823Z,43.90
2018-09-09T15:08:32.279Z,43.70
2018-09-09T15:11:00.739Z,43.80
2018-09-09T15:13:29.179Z,43.90
2018-09-09T15:15:57.663Z,43.90
2018-09-09T15:18:26.124Z,43.80
2018-09-09T15:20:54.527Z,43.90
2018-09-09T15:23:22.974Z,43.40
2018-09-09T15:25:51.369Z,43.90
2018-09-09T15:28:19.807Z,44.10
2018-09-09T15:30:48.262Z,44.20
2018-09-09T15:33:16.666Z,43.70
2018-09-09T15:35:45.096Z,43.30
2018-09-09T15:38:13.617Z,44.10
2018-09-09T15:40:42.069Z,44.20
2018-09-09T15:43:10.515Z,45.30
2018-09-09T15:45:39.020Z,45.10
2018-09-09T15:48:07.450Z,45.90
2018-09-09T15:50:35.935Z,45.90
2018-09-09T15:53:04.348Z,45.80
2018-09-09T15:55:32.811Z,45.80
2018-09-09T15:58:01.228Z,45.80
2018-09-09T16:00:29.780Z,45.40
2018-09-09T16:02:58.145Z,45.80
2018-09-09T16:05:26.611Z,45.40
2018-09-09T16:07:55.077Z,45.60
2018-09-09T16:10:23.541Z,45.50
2018-09-09T16:12:52.034Z,45.60
2018-09-09T16:15:20.607Z,45.70
2018-09-09T16:17:49.023Z,45.60
2018-09-09T16:20:17.467Z,45.60
2018-09-09T16:22:45.902Z,45.60
2018-09-09T16:25:14.380Z,44.70
2018-09-09T16:27:42.839Z,45.50
2018-09-09T16:30:11.738Z,45.00
2018-09-09T16:32:40.151Z,44.40
2018-09-09T16:35:08.599Z,45.20
2018-09-09T16:37:37.166Z,44.90
2018-09-09T16:40:05.752Z,44.70
2018-09-09T16:42:34.287Z,45.40
2018-09-09T16:45:02.836Z,44.70
2018-09-09T16:47:31.298Z,44.80
2018-09-09T16:49:59.811Z,44.90
2018-09-09T16:52:28.272Z,44.80
2018-09-09T16:54:56.761Z,45.40
2018-09-09T16:57:25.245Z,44.80
2018-09-09T16:59:53.781Z,45.20
2018-09-09T17:02:22.279Z,45.20
2018-09-09T17:04:50.733Z,45.20
2018-09-09T17:07:19.219Z,45.60
2018-09-09T17:09:47.692Z,45.00
2018-09-09T17:12:16.167Z,45.40
2018-09-09T17:14:44.696Z,45.80
2018-09-09T17:17:13.165Z,46.60
2018-09-09T17:19:41.678Z,46.90
2018-09-09T17:22:10.189Z,46.50
2018-09-09T17:24:38.640Z,46.40
2018-09-09T17:27:07.135Z,46.20
2018-09-09T17:29:35.607Z,46.30
2018-09-09T17:32:04.153Z,46.30
2018-09-09T17:34:32.636Z,46.30
2018-09-09T17:37:01.103Z,46.00
2018-09-09T17:39:29.524Z,46.20
2018-09-09T17:41:57.959Z,46.60
2018-09-09T17:44:26.364Z,46.70
2018-09-09T17:46:54.808Z,47.00
2018-09-09T17:49:23.216Z,47.00
2018-09-09T17:51:51.639Z,47.40
2018-09-09T17:54:20.044Z,47.50
2018-09-09T17:56:48.513Z,48.00
2018-09-09T17:59:16.953Z,48.30
2018-09-09T18:01:45.411Z,48.60
2018-09-09T18:04:13.831Z,48.40
2018-09-09T18:06:42.249Z,48.60
2018-09-09T18:09:11.027Z,48.90
2018-09-09T18:11:39.720Z,49.00
2018-09-09T18:14:08.323Z,48.80
2018-09-09T18:16:36.736Z,49.60
2018-09-09T18:19:05.240Z,49.40
2018-09-09T18:21:33.679Z,49.50
2018-09-09T18:24:02.189Z,50.00
2018-09-09T18:26:30.648Z,49.90
2018-09-09T18:28:59.148Z,49.90
2018-09-09T18:31:27.575Z,50.00
2018-09-09T18:33:56.035Z,50.20
2018-09-09T18:36:24.497Z,50.30
2018-09-09T18:38:53.129Z,51.00
2018-09-09T18:41:21.452Z,51.10
2018-09-09T18:43:49.963Z,50.40
2018-09-09T18:46:18.416Z,51.00
2018-09-09T18:48:46.889Z,52.40
2018-09-09T18:51:15.335Z,52.50
2018-09-09T18:53:43.815Z,52.10
2018-09-09T18:56:12.254Z,51.50
2018-09-09T18:58:40.732Z,51.80
2018-09-09T19:01:09.161Z,52.70
2018-09-09T19:03:37.599Z,53.00
2018-09-09T19:06:06.066Z,54.60
2018-09-09T19:08:34.538Z,55.40
2018-09-09T19:11:02.962Z,56.00
2018-09-09T19:13:31.388Z,55.00
2018-09-09T19:15:59.852Z,54.50
2018-09-09T19:18:28.316Z,54.00
2018-09-09T19:20:56.738Z,53.60
2018-09-09T19:23:25.194Z,53.20
2018-09-09T19:25:53.630Z,53.10
2018-09-09T19:28:22.128Z,53.00
2018-09-09T19:30:50.703Z,53.30
2018-09-09T19:33:19.167Z,53.30
2018-09-09T19:35:47.578Z,53.30
2018-09-09T19:38:16.062Z,53.00
2018-09-09T19:40:44.544Z,54.60
2018-09-09T19:43:13.011Z,55.60
2018-09-09T19:45:41.528Z,57.20
2018-09-09T19:48:09.982Z,58.20
2018-09-09T19:50:38.474Z,58.30
2018-09-09T19:53:07.011Z,57.90
2018-09-09T19:55:35.496Z,57.80
2018-09-09T19:58:03.990Z,57.80
2018-09-09T20:00:32.506Z,57.70
2018-09-09T20:03:00.980Z,57.60
2018-09-09T20:05:29.428Z,57.40
2018-09-09T20:07:57.935Z,56.30
2018-09-09T20:10:26.415Z,57.60
2018-09-09T20:12:54.827Z,57.70
2018-09-09T20:15:23.282Z,57.60
2018-09-09T20:17:51.724Z,57.50
2018-09-09T20:20:20.147Z,57.30
2018-09-09T20:22:48.612Z,57.80
2018-09-09T20:25:17.188Z,57.60
2018-09-09T20:27:45.609Z,57.60
2018-09-09T20:30:14.072Z,58.30
2018-09-09T20:32:42.598Z,58.80
2018-09-09T20:35:10.978Z,59.10
2018-09-09T20:37:39.475Z,59.50
2018-09-09T20:40:07.988Z,59.60
2018-09-09T20:42:36.476Z,59.30
2018-09-09T20:45:05.319Z,60.10
2018-09-09T20:47:33.780Z,61.00
2018-09-09T20:50:02.263Z,61.20
2018-09-09T20:52:30.748Z,61.60
2018-09-09T20:54:59.300Z,62.40
2018-09-09T20:57:27.767Z,62.70
2018-09-09T20:59:56.287Z,62.80
2018-09-09T21:02:24.804Z,62.70
2018-09-09T21:04:53.344Z,63.60
2018-09-09T21:07:21.798Z,63.20
2018-09-09T21:09:50.270Z,64.90
2018-09-09T21:12:18.745Z,64.30
2018-09-09T21:14:47.193Z,64.80
2018-09-09T21:17:15.643Z,64.80
2018-09-09T21:19:44.105Z,64.80
2018-09-09T21:22:12.617Z,65.90
2018-09-09T21:24:41.314Z,66.00
2018-09-09T21:27:09.790Z,66.20
2018-09-09T21:29:38.344Z,66.10
2018-09-09T21:32:06.936Z,66.30
2018-09-09T21:34:35.449Z,67.00
2018-09-09T21:37:03.978Z,66.90
2018-09-09T21:39:32.487Z,67.40
2018-09-09T21:42:01.011Z,68.00
2018-09-09T21:44:29.452Z,67.90
2018-09-09T21:46:58.114Z,68.00
2018-09-09T21:49:26.539Z,68.70
2018-09-09T21:51:55.181Z,69.00
2018-09-09T21:54:23.625Z,68.70
2018-09-09T21:56:52.118Z,69.00
2018-09-09T21:59:20.534Z,69.40
2018-09-09T22:02:07.579Z,69.90
2018-09-09T22:04:36.354Z,70.20
2018-09-09T22:07:05.453Z,70.30
2018-09-09T22:09:33.855Z,69.60
2018-09-09T22:12:02.304Z,69.60
2018-09-09T22:14:30.721Z,70.20
2018-09-09T22:16:59.374Z,71.30
2018-09-09T22:19:27.787Z,72.10
2018-09-09T22:21:56.224Z,72.00
2018-09-09T22:24:25.095Z,72.10
2018-09-09T22:26:53.516Z,71.90
2018-09-09T22:29:21.933Z,72.10
2018-09-09T22:31:50.366Z,72.90
2018-09-09T22:34:18.827Z,73.50
2018-09-09T22:36:47.322Z,74.30
2018-09-09T22:39:16.050Z,74.00
2018-09-09T22:41:45.219Z,74.30
2018-09-09T22:44:13.670Z,75.40
2018-09-09T22:46:42.695Z,75.10
2018-09-09T22:49:11.148Z,74.10
2018-09-09T22:51:39.607Z,73.80
2018-09-09T22:54:08.087Z,73.50
2018-09-09T22:56:36.650Z,72.60
2018-09-09T22:59:05.310Z,73.40
2018-09-09T23:01:34.012Z,75.20
2018-09-09T23:04:02.569Z,76.40
2018-09-09T23:06:30.995Z,77.20
2018-09-09T23:08:59.466Z,77.90
2018-09-09T23:11:27.922Z,78.20
2018-09-09T23:13:56.368Z,79.00
2018-09-09T23:16:24.883Z,78.40
2018-09-09T23:18:53.437Z,78.60
2018-09-09T23:21:21.890Z,79.20
2018-09-09T23:23:50.416Z,78.00
2018-09-09T23:26:19.115Z,77.60
2018-09-09T23:28:47.595Z,77.60
2018-09-09T23:31:16.122Z,77.80
2018-09-09T23:33:44.584Z,77.60
2018-09-09T23:36:13.204Z,77.80
2018-09-09T23:38:41.641Z,78.00
2018-09-09T23:41:10.150Z,78.60
2018-09-09T23:43:38.585Z,79.20
2018-09-09T23:46:07.091Z,79.30
2018-09-09T23:48:35.566Z,79.30
2018-09-09T23:51:04.023Z,79.40
2018-09-09T23:53:32.462Z,80.70
2018-09-09T23:56:00.891Z,81.90
2018-09-09T23:58:29.322Z,82.30
